sensor_id;sensor_type;location;lat;lon;timestamp;P1;durP1;ratioP1;P2;durP2;ratioP2
59790;SDS011;47431;51.640;5.554;2022-07-29T00:02:06;5.32;;;2.10;;
59790;SDS011;47431;51.640;5.554;2022-07-29T00:04:33;6.10;;;2.13;;
59790;SDS011;47431;51.640;5.554;2022-07-29T00:06:59;4.68;;;1.90;;
59790;SDS011;47431;51.640;5.554;2022-07-29T00:09:24;5.05;;;2.15;;
59790;SDS011;47431;51.640;5.554;2022-07-29T00:11:49;6.93;;;2.07;;
59790;SDS011;47431;51.640;5.554;2022-07-29T00:14:14;5.72;;;2.40;;
59790;SDS011;47431;51.640;5.554;2022-07-29T00:16:39;5.63;;;2.38;;
59790;SDS011;47431;51.640;5.554;2022-07-29T00:19:05;4.82;;;2.20;;
59790;SDS011;47431;51.640;5.554;2022-07-29T00:21:30;6.85;;;2.17;;
59790;SDS011;47431;51.640;5.554;2022-07-29T00:23:55;6.78;;;2.55;;
59790;SDS011;47431;51.640;5.554;2022-07-29T00:26:21;10.48;;;2.72;;
59790;SDS011;47431;51.640;5.554;2022-07-29T00:28:46;7.13;;;2.30;;
59790;SDS011;47431;51.640;5.554;2022-07-29T00:31:11;4.30;;;1.95;;
59790;SDS011;47431;51.640;5.554;2022-07-29T00:33:37;11.05;;;2.55;;
59790;SDS011;47431;51.640;5.554;2022-07-29T00:36:02;10.57;;;2.65;;
59790;SDS011;47431;51.640;5.554;2022-07-29T00:38:27;6.10;;;2.00;;
59790;SDS011;47431;51.640;5.554;2022-07-29T00:40:52;6.63;;;2.47;;
59790;SDS011;47431;51.640;5.554;2022-07-29T00:43:18;8.77;;;2.58;;
59790;SDS011;47431;51.640;5.554;2022-07-29T00:45:43;7.25;;;2.42;;
59790;SDS011;47431;51.640;5.554;2022-07-29T00:48:08;6.78;;;2.45;;
59790;SDS011;47431;51.640;5.554;2022-07-29T00:50:34;9.48;;;2.95;;
59790;SDS011;47431;51.640;5.554;2022-07-29T00:52:59;7.75;;;2.88;;
59790;SDS011;47431;51.640;5.554;2022-07-29T00:55:25;5.63;;;2.70;;
59790;SDS011;47431;51.640;5.554;2022-07-29T00:57:50;9.18;;;2.92;;
59790;SDS011;47431;51.640;5.554;2022-07-29T01:00:20;12.02;;;2.92;;
59790;SDS011;47431;51.640;5.554;2022-07-29T01:02:46;9.90;;;2.80;;
59790;SDS011;47431;51.640;5.554;2022-07-29T01:05:16;12.60;;;2.92;;
59790;SDS011;47431;51.640;5.554;2022-07-29T01:07:42;8.75;;;2.95;;
59790;SDS011;47431;51.640;5.554;2022-07-29T01:10:09;5.00;;;2.50;;
59790;SDS011;47431;51.640;5.554;2022-07-29T01:12:34;6.65;;;2.40;;
59790;SDS011;47431;51.640;5.554;2022-07-29T01:15:01;9.13;;;2.40;;
59790;SDS011;47431;51.640;5.554;2022-07-29T01:17:27;13.48;;;3.00;;
59790;SDS011;47431;51.640;5.554;2022-07-29T01:25:09;7.25;;;2.72;;
59790;SDS011;47431;51.640;5.554;2022-07-29T01:27:32;8.18;;;2.00;;
59790;SDS011;47431;51.640;5.554;2022-07-29T01:30:03;5.18;;;1.90;;
59790;SDS011;47431;51.640;5.554;2022-07-29T01:32:29;8.43;;;2.65;;
59790;SDS011;47431;51.640;5.554;2022-07-29T01:40:11;9.18;;;2.50;;
59790;SDS011;47431;51.640;5.554;2022-07-29T01:42:39;5.32;;;2.72;;
59790;SDS011;47431;51.640;5.554;2022-07-29T01:50:34;7.20;;;2.88;;
59790;SDS011;47431;51.640;5.554;2022-07-29T01:53:02;16.60;;;2.90;;
59790;SDS011;47431;51.640;5.554;2022-07-29T01:55:35;8.25;;;2.83;;
59790;SDS011;47431;51.640;5.554;2022-07-29T01:58:03;8.63;;;2.70;;
59790;SDS011;47431;51.640;5.554;2022-07-29T02:00:29;5.97;;;2.78;;
59790;SDS011;47431;51.640;5.554;2022-07-29T02:02:56;9.15;;;3.15;;
59790;SDS011;47431;51.640;5.554;2022-07-29T02:05:22;10.57;;;3.88;;
59790;SDS011;47431;51.640;5.554;2022-07-29T02:07:49;9.23;;;3.17;;
59790;SDS011;47431;51.640;5.554;2022-07-29T02:10:15;11.15;;;3.67;;
59790;SDS011;47431;51.640;5.554;2022-07-29T02:12:42;6.88;;;3.25;;
59790;SDS011;47431;51.640;5.554;2022-07-29T02:15:08;7.22;;;2.85;;
59790;SDS011;47431;51.640;5.554;2022-07-29T02:17:44;7.72;;;3.28;;
59790;SDS011;47431;51.640;5.554;2022-07-29T02:20:10;7.25;;;3.30;;
59790;SDS011;47431;51.640;5.554;2022-07-29T02:22:37;7.10;;;3.42;;
59790;SDS011;47431;51.640;5.554;2022-07-29T02:25:02;7.70;;;3.45;;
59790;SDS011;47431;51.640;5.554;2022-07-29T02:27:29;9.02;;;3.17;;
59790;SDS011;47431;51.640;5.554;2022-07-29T02:29:54;5.65;;;3.17;;
59790;SDS011;47431;51.640;5.554;2022-07-29T02:32:22;8.77;;;3.28;;
59790;SDS011;47431;51.640;5.554;2022-07-29T02:34:49;8.13;;;3.75;;
59790;SDS011;47431;51.640;5.554;2022-07-29T02:37:15;6.38;;;3.60;;
59790;SDS011;47431;51.640;5.554;2022-07-29T02:39:41;12.75;;;4.03;;
59790;SDS011;47431;51.640;5.554;2022-07-29T02:42:10;7.07;;;3.50;;
59790;SDS011;47431;51.640;5.554;2022-07-29T02:44:37;9.48;;;3.88;;
59790;SDS011;47431;51.640;5.554;2022-07-29T02:49:38;9.13;;;3.60;;
59790;SDS011;47431;51.640;5.554;2022-07-29T02:52:05;6.47;;;3.75;;
59790;SDS011;47431;51.640;5.554;2022-07-29T02:54:51;11.25;;;3.35;;
59790;SDS011;47431;51.640;5.554;2022-07-29T02:57:20;8.02;;;3.47;;
59790;SDS011;47431;51.640;5.554;2022-07-29T02:59:47;9.85;;;4.03;;
59790;SDS011;47431;51.640;5.554;2022-07-29T03:02:13;10.75;;;3.90;;
59790;SDS011;47431;51.640;5.554;2022-07-29T03:04:39;6.53;;;4.03;;
59790;SDS011;47431;51.640;5.554;2022-07-29T03:07:06;7.40;;;3.47;;
59790;SDS011;47431;51.640;5.554;2022-07-29T03:09:31;6.75;;;4.13;;
59790;SDS011;47431;51.640;5.554;2022-07-29T03:11:57;7.65;;;3.95;;
59790;SDS011;47431;51.640;5.554;2022-07-29T03:14:22;5.68;;;3.42;;
59790;SDS011;47431;51.640;5.554;2022-07-29T03:16:48;10.65;;;4.10;;
59790;SDS011;47431;51.640;5.554;2022-07-29T03:19:14;7.82;;;3.83;;
59790;SDS011;47431;51.640;5.554;2022-07-29T03:21:39;9.70;;;4.63;;
59790;SDS011;47431;51.640;5.554;2022-07-29T03:24:04;5.95;;;3.97;;
59790;SDS011;47431;51.640;5.554;2022-07-29T03:26:30;9.88;;;4.25;;
59790;SDS011;47431;51.640;5.554;2022-07-29T03:28:55;10.38;;;4.53;;
59790;SDS011;47431;51.640;5.554;2022-07-29T03:31:20;8.02;;;3.83;;
59790;SDS011;47431;51.640;5.554;2022-07-29T03:33:45;10.05;;;4.88;;
59790;SDS011;47431;51.640;5.554;2022-07-29T03:36:11;8.00;;;4.47;;
59790;SDS011;47431;51.640;5.554;2022-07-29T03:38:36;6.93;;;3.65;;
59790;SDS011;47431;51.640;5.554;2022-07-29T03:41:06;8.82;;;4.50;;
59790;SDS011;47431;51.640;5.554;2022-07-29T03:43:34;7.40;;;3.30;;
59790;SDS011;47431;51.640;5.554;2022-07-29T03:46:00;6.47;;;3.88;;
59790;SDS011;47431;51.640;5.554;2022-07-29T03:48:26;8.25;;;3.95;;
59790;SDS011;47431;51.640;5.554;2022-07-29T03:50:54;6.38;;;3.53;;
59790;SDS011;47431;51.640;5.554;2022-07-29T03:53:20;6.95;;;4.13;;
59790;SDS011;47431;51.640;5.554;2022-07-29T03:55:46;7.30;;;3.97;;
59790;SDS011;47431;51.640;5.554;2022-07-29T03:58:13;18.02;;;4.13;;
59790;SDS011;47431;51.640;5.554;2022-07-29T04:00:39;8.15;;;4.10;;
59790;SDS011;47431;51.640;5.554;2022-07-29T04:03:05;9.40;;;3.80;;
59790;SDS011;47431;51.640;5.554;2022-07-29T04:05:30;6.65;;;4.35;;
59790;SDS011;47431;51.640;5.554;2022-07-29T04:07:55;8.52;;;4.15;;
59790;SDS011;47431;51.640;5.554;2022-07-29T04:10:21;6.53;;;4.25;;
59790;SDS011;47431;51.640;5.554;2022-07-29T04:12:47;9.02;;;4.00;;
59790;SDS011;47431;51.640;5.554;2022-07-29T04:15:13;8.38;;;3.90;;
59790;SDS011;47431;51.640;5.554;2022-07-29T04:17:38;6.78;;;4.63;;
59790;SDS011;47431;51.640;5.554;2022-07-29T04:20:03;9.48;;;4.25;;
59790;SDS011;47431;51.640;5.554;2022-07-29T04:22:29;10.32;;;4.97;;
59790;SDS011;47431;51.640;5.554;2022-07-29T04:24:54;7.75;;;4.47;;
59790;SDS011;47431;51.640;5.554;2022-07-29T04:27:19;9.98;;;4.80;;
59790;SDS011;47431;51.640;5.554;2022-07-29T04:29:44;12.30;;;5.13;;
59790;SDS011;47431;51.640;5.554;2022-07-29T04:32:10;10.77;;;4.97;;
59790;SDS011;47431;51.640;5.554;2022-07-29T04:34:35;8.90;;;4.75;;
59790;SDS011;47431;51.640;5.554;2022-07-29T04:37:00;9.57;;;4.68;;
59790;SDS011;47431;51.640;5.554;2022-07-29T04:39:25;7.20;;;4.85;;
59790;SDS011;47431;51.640;5.554;2022-07-29T04:41:50;10.50;;;5.88;;
59790;SDS011;47431;51.640;5.554;2022-07-29T04:44:16;11.57;;;5.55;;
59790;SDS011;47431;51.640;5.554;2022-07-29T04:46:41;8.88;;;5.63;;
59790;SDS011;47431;51.640;5.554;2022-07-29T04:49:06;9.82;;;4.68;;
59790;SDS011;47431;51.640;5.554;2022-07-29T04:51:31;7.70;;;4.15;;
59790;SDS011;47431;51.640;5.554;2022-07-29T04:53:57;9.50;;;4.95;;
59790;SDS011;47431;51.640;5.554;2022-07-29T04:56:22;7.38;;;5.07;;
59790;SDS011;47431;51.640;5.554;2022-07-29T04:58:47;10.30;;;4.90;;
59790;SDS011;47431;51.640;5.554;2022-07-29T05:01:12;9.90;;;6.10;;
59790;SDS011;47431;51.640;5.554;2022-07-29T05:03:37;8.27;;;5.07;;
59790;SDS011;47431;51.640;5.554;2022-07-29T05:06:02;9.65;;;5.32;;
59790;SDS011;47431;51.640;5.554;2022-07-29T05:08:28;8.05;;;5.25;;
59790;SDS011;47431;51.640;5.554;2022-07-29T05:10:53;8.07;;;5.45;;
59790;SDS011;47431;51.640;5.554;2022-07-29T05:13:18;8.93;;;6.30;;
59790;SDS011;47431;51.640;5.554;2022-07-29T05:15:43;10.55;;;5.50;;
59790;SDS011;47431;51.640;5.554;2022-07-29T05:18:08;13.15;;;5.70;;
59790;SDS011;47431;51.640;5.554;2022-07-29T05:20:34;7.82;;;5.57;;
59790;SDS011;47431;51.640;5.554;2022-07-29T05:23:00;8.70;;;5.65;;
59790;SDS011;47431;51.640;5.554;2022-07-29T05:25:25;7.03;;;4.80;;
59790;SDS011;47431;51.640;5.554;2022-07-29T05:27:51;10.50;;;5.50;;
59790;SDS011;47431;51.640;5.554;2022-07-29T05:30:16;8.73;;;5.68;;
59790;SDS011;47431;51.640;5.554;2022-07-29T05:32:42;8.48;;;5.57;;
59790;SDS011;47431;51.640;5.554;2022-07-29T05:35:07;12.18;;;6.55;;
59790;SDS011;47431;51.640;5.554;2022-07-29T05:37:33;9.38;;;5.97;;
59790;SDS011;47431;51.640;5.554;2022-07-29T05:39:58;15.88;;;6.78;;
59790;SDS011;47431;51.640;5.554;2022-07-29T05:42:24;12.40;;;6.72;;
59790;SDS011;47431;51.640;5.554;2022-07-29T05:44:49;11.18;;;6.32;;
59790;SDS011;47431;51.640;5.554;2022-07-29T05:47:14;7.82;;;6.60;;
59790;SDS011;47431;51.640;5.554;2022-07-29T05:49:39;9.10;;;5.80;;
59790;SDS011;47431;51.640;5.554;2022-07-29T05:52:04;15.02;;;6.85;;
59790;SDS011;47431;51.640;5.554;2022-07-29T05:54:30;8.27;;;6.13;;
59790;SDS011;47431;51.640;5.554;2022-07-29T05:56:55;19.52;;;6.68;;
59790;SDS011;47431;51.640;5.554;2022-07-29T05:59:20;10.77;;;6.43;;
59790;SDS011;47431;51.640;5.554;2022-07-29T06:01:46;8.73;;;6.65;;
59790;SDS011;47431;51.640;5.554;2022-07-29T06:04:11;11.88;;;7.32;;
59790;SDS011;47431;51.640;5.554;2022-07-29T06:06:36;11.70;;;6.32;;
59790;SDS011;47431;51.640;5.554;2022-07-29T06:09:02;10.02;;;5.60;;
59790;SDS011;47431;51.640;5.554;2022-07-29T06:11:27;8.48;;;6.55;;
59790;SDS011;47431;51.640;5.554;2022-07-29T06:13:52;14.00;;;6.07;;
59790;SDS011;47431;51.640;5.554;2022-07-29T06:16:18;10.82;;;6.10;;
59790;SDS011;47431;51.640;5.554;2022-07-29T06:18:43;11.00;;;5.85;;
59790;SDS011;47431;51.640;5.554;2022-07-29T06:21:08;11.75;;;6.43;;
59790;SDS011;47431;51.640;5.554;2022-07-29T06:23:34;11.32;;;6.22;;
59790;SDS011;47431;51.640;5.554;2022-07-29T06:26:00;10.57;;;6.07;;
59790;SDS011;47431;51.640;5.554;2022-07-29T06:28:25;13.07;;;6.38;;
59790;SDS011;47431;51.640;5.554;2022-07-29T06:30:51;8.90;;;6.35;;
59790;SDS011;47431;51.640;5.554;2022-07-29T06:33:16;11.02;;;5.63;;
59790;SDS011;47431;51.640;5.554;2022-07-29T06:35:42;8.35;;;5.57;;
59790;SDS011;47431;51.640;5.554;2022-07-29T06:38:08;8.68;;;5.82;;
59790;SDS011;47431;51.640;5.554;2022-07-29T06:40:33;10.88;;;6.03;;
59790;SDS011;47431;51.640;5.554;2022-07-29T06:43:17;12.63;;;7.13;;
59790;SDS011;47431;51.640;5.554;2022-07-29T06:45:42;12.40;;;5.60;;
59790;SDS011;47431;51.640;5.554;2022-07-29T06:48:09;11.27;;;6.57;;
59790;SDS011;47431;51.640;5.554;2022-07-29T06:50:34;9.27;;;5.97;;
59790;SDS011;47431;51.640;5.554;2022-07-29T06:52:59;23.80;;;6.47;;
59790;SDS011;47431;51.640;5.554;2022-07-29T06:55:24;9.57;;;5.72;;
59790;SDS011;47431;51.640;5.554;2022-07-29T06:57:51;9.77;;;7.13;;
59790;SDS011;47431;51.640;5.554;2022-07-29T07:00:16;9.82;;;5.85;;
59790;SDS011;47431;51.640;5.554;2022-07-29T07:02:41;10.50;;;6.22;;
59790;SDS011;47431;51.640;5.554;2022-07-29T07:05:06;7.03;;;5.53;;
59790;SDS011;47431;51.640;5.554;2022-07-29T07:07:31;6.57;;;5.13;;
59790;SDS011;47431;51.640;5.554;2022-07-29T07:09:57;10.55;;;5.05;;
59790;SDS011;47431;51.640;5.554;2022-07-29T07:12:22;8.68;;;4.53;;
59790;SDS011;47431;51.640;5.554;2022-07-29T07:14:47;10.43;;;4.82;;
59790;SDS011;47431;51.640;5.554;2022-07-29T07:17:13;9.55;;;5.38;;
59790;SDS011;47431;51.640;5.554;2022-07-29T07:19:38;7.63;;;4.88;;
59790;SDS011;47431;51.640;5.554;2022-07-29T07:22:03;11.13;;;5.43;;
59790;SDS011;47431;51.640;5.554;2022-07-29T07:24:28;12.18;;;5.68;;
59790;SDS011;47431;51.640;5.554;2022-07-29T07:26:54;10.38;;;5.75;;
59790;SDS011;47431;51.640;5.554;2022-07-29T07:29:20;8.02;;;5.63;;
59790;SDS011;47431;51.640;5.554;2022-07-29T07:31:45;11.30;;;5.95;;
59790;SDS011;47431;51.640;5.554;2022-07-29T07:34:10;8.55;;;4.85;;
59790;SDS011;47431;51.640;5.554;2022-07-29T07:36:35;9.40;;;5.25;;
59790;SDS011;47431;51.640;5.554;2022-07-29T07:39:00;10.13;;;5.22;;
59790;SDS011;47431;51.640;5.554;2022-07-29T07:41:26;8.82;;;4.95;;
59790;SDS011;47431;51.640;5.554;2022-07-29T07:43:51;9.70;;;4.97;;
59790;SDS011;47431;51.640;5.554;2022-07-29T07:46:16;11.52;;;5.85;;
59790;SDS011;47431;51.640;5.554;2022-07-29T07:48:41;9.88;;;4.95;;
59790;SDS011;47431;51.640;5.554;2022-07-29T07:51:07;12.10;;;5.15;;
59790;SDS011;47431;51.640;5.554;2022-07-29T07:53:32;8.05;;;5.35;;
59790;SDS011;47431;51.640;5.554;2022-07-29T07:55:57;12.18;;;5.72;;
59790;SDS011;47431;51.640;5.554;2022-07-29T07:58:22;8.95;;;6.45;;
59790;SDS011;47431;51.640;5.554;2022-07-29T08:00:47;11.37;;;6.23;;
59790;SDS011;47431;51.640;5.554;2022-07-29T08:03:13;9.52;;;5.63;;
59790;SDS011;47431;51.640;5.554;2022-07-29T08:05:39;11.45;;;6.63;;
59790;SDS011;47431;51.640;5.554;2022-07-29T08:08:04;21.80;;;6.30;;
59790;SDS011;47431;51.640;5.554;2022-07-29T08:10:29;8.18;;;5.78;;
59790;SDS011;47431;51.640;5.554;2022-07-29T08:13:13;8.88;;;5.75;;
59790;SDS011;47431;51.640;5.554;2022-07-29T08:15:38;9.77;;;6.50;;
59790;SDS011;47431;51.640;5.554;2022-07-29T08:18:04;10.85;;;5.75;;
59790;SDS011;47431;51.640;5.554;2022-07-29T08:20:29;8.32;;;5.68;;
59790;SDS011;47431;51.640;5.554;2022-07-29T08:22:54;8.55;;;5.93;;
59790;SDS011;47431;51.640;5.554;2022-07-29T08:25:20;8.90;;;5.82;;
59790;SDS011;47431;51.640;5.554;2022-07-29T08:27:48;10.52;;;6.38;;
59790;SDS011;47431;51.640;5.554;2022-07-29T08:30:13;11.27;;;6.68;;
59790;SDS011;47431;51.640;5.554;2022-07-29T08:32:39;11.60;;;6.05;;
59790;SDS011;47431;51.640;5.554;2022-07-29T08:35:04;9.65;;;6.72;;
59790;SDS011;47431;51.640;5.554;2022-07-29T08:37:29;12.50;;;6.97;;
59790;SDS011;47431;51.640;5.554;2022-07-29T08:39:54;12.60;;;7.63;;
59790;SDS011;47431;51.640;5.554;2022-07-29T08:42:20;9.23;;;5.78;;
59790;SDS011;47431;51.640;5.554;2022-07-29T08:44:45;9.95;;;5.90;;
59790;SDS011;47431;51.640;5.554;2022-07-29T08:47:13;11.17;;;6.60;;
59790;SDS011;47431;51.640;5.554;2022-07-29T08:49:38;9.25;;;6.00;;
59790;SDS011;47431;51.640;5.554;2022-07-29T08:52:04;8.98;;;6.22;;
59790;SDS011;47431;51.640;5.554;2022-07-29T08:54:29;10.57;;;5.38;;
59790;SDS011;47431;51.640;5.554;2022-07-29T08:56:54;11.75;;;5.93;;
59790;SDS011;47431;51.640;5.554;2022-07-29T08:59:20;7.13;;;4.53;;
59790;SDS011;47431;51.640;5.554;2022-07-29T09:01:46;9.80;;;4.60;;
59790;SDS011;47431;51.640;5.554;2022-07-29T09:04:12;8.90;;;4.78;;
59790;SDS011;47431;51.640;5.554;2022-07-29T09:06:40;16.40;;;5.00;;
59790;SDS011;47431;51.640;5.554;2022-07-29T09:09:07;14.02;;;5.07;;
59790;SDS011;47431;51.640;5.554;2022-07-29T09:11:32;10.35;;;5.50;;
59790;SDS011;47431;51.640;5.554;2022-07-29T09:13:58;9.30;;;5.05;;
59790;SDS011;47431;51.640;5.554;2022-07-29T09:16:23;11.00;;;5.38;;
59790;SDS011;47431;51.640;5.554;2022-07-29T09:18:48;7.90;;;4.97;;
59790;SDS011;47431;51.640;5.554;2022-07-29T09:21:15;6.68;;;4.55;;
59790;SDS011;47431;51.640;5.554;2022-07-29T09:24:12;14.35;;;5.93;;
59790;SDS011;47431;51.640;5.554;2022-07-29T09:26:41;11.82;;;4.35;;
59790;SDS011;47431;51.640;5.554;2022-07-29T09:29:15;17.05;;;4.97;;
59790;SDS011;47431;51.640;5.554;2022-07-29T09:31:41;9.07;;;5.05;;
59790;SDS011;47431;51.640;5.554;2022-07-29T09:34:07;9.45;;;5.10;;
59790;SDS011;47431;51.640;5.554;2022-07-29T09:36:42;8.60;;;5.15;;
59790;SDS011;47431;51.640;5.554;2022-07-29T09:39:08;17.35;;;5.93;;
59790;SDS011;47431;51.640;5.554;2022-07-29T09:41:46;10.57;;;5.13;;
59790;SDS011;47431;51.640;5.554;2022-07-29T09:44:11;11.57;;;4.00;;
59790;SDS011;47431;51.640;5.554;2022-07-29T09:46:37;8.55;;;4.28;;
59790;SDS011;47431;51.640;5.554;2022-07-29T09:49:05;6.72;;;3.53;;
59790;SDS011;47431;51.640;5.554;2022-07-29T09:51:31;10.43;;;3.45;;
59790;SDS011;47431;51.640;5.554;2022-07-29T09:53:56;7.87;;;3.60;;
59790;SDS011;47431;51.640;5.554;2022-07-29T09:56:40;6.80;;;3.38;;
59790;SDS011;47431;51.640;5.554;2022-07-29T09:59:06;10.05;;;3.30;;
59790;SDS011;47431;51.640;5.554;2022-07-29T10:01:31;11.63;;;4.18;;
59790;SDS011;47431;51.640;5.554;2022-07-29T10:03:56;7.47;;;4.57;;
59790;SDS011;47431;51.640;5.554;2022-07-29T10:06:22;8.82;;;4.53;;
59790;SDS011;47431;51.640;5.554;2022-07-29T10:08:47;8.70;;;4.60;;
59790;SDS011;47431;51.640;5.554;2022-07-29T10:11:16;8.23;;;4.72;;
59790;SDS011;47431;51.640;5.554;2022-07-29T10:13:41;8.82;;;4.60;;
59790;SDS011;47431;51.640;5.554;2022-07-29T10:16:07;8.07;;;5.00;;
59790;SDS011;47431;51.640;5.554;2022-07-29T10:18:33;13.60;;;4.97;;
59790;SDS011;47431;51.640;5.554;2022-07-29T10:20:58;7.35;;;4.55;;
59790;SDS011;47431;51.640;5.554;2022-07-29T10:23:29;7.75;;;4.85;;
59790;SDS011;47431;51.640;5.554;2022-07-29T10:25:54;11.88;;;5.03;;
59790;SDS011;47431;51.640;5.554;2022-07-29T10:28:20;11.27;;;4.90;;
59790;SDS011;47431;51.640;5.554;2022-07-29T10:30:45;11.40;;;3.60;;
59790;SDS011;47431;51.640;5.554;2022-07-29T10:33:21;11.80;;;3.70;;
59790;SDS011;47431;51.640;5.554;2022-07-29T10:40:57;6.90;;;3.50;;
59790;SDS011;47431;51.640;5.554;2022-07-29T10:43:46;10.23;;;4.70;;
59790;SDS011;47431;51.640;5.554;2022-07-29T10:46:12;8.20;;;3.80;;
59790;SDS011;47431;51.640;5.554;2022-07-29T10:51:22;11.45;;;4.15;;
59790;SDS011;47431;51.640;5.554;2022-07-29T10:56:30;7.17;;;2.83;;
59790;SDS011;47431;51.640;5.554;2022-07-29T10:59:43;6.45;;;2.70;;
59790;SDS011;47431;51.640;5.554;2022-07-29T11:01:42;8.73;;;3.22;;
59790;SDS011;47431;51.640;5.554;2022-07-29T11:04:07;8.10;;;3.00;;
59790;SDS011;47431;51.640;5.554;2022-07-29T11:09:17;6.90;;;3.35;;
59790;SDS011;47431;51.640;5.554;2022-07-29T11:11:45;10.13;;;3.00;;
59790;SDS011;47431;51.640;5.554;2022-07-29T11:14:11;9.23;;;2.75;;
59790;SDS011;47431;51.640;5.554;2022-07-29T11:19:21;15.57;;;3.20;;
59790;SDS011;47431;51.640;5.554;2022-07-29T11:21:46;6.78;;;2.10;;
59790;SDS011;47431;51.640;5.554;2022-07-29T11:24:28;8.75;;;2.75;;
59790;SDS011;47431;51.640;5.554;2022-07-29T11:29:20;11.13;;;3.70;;
59790;SDS011;47431;51.640;5.554;2022-07-29T11:31:47;6.07;;;2.92;;
59790;SDS011;47431;51.640;5.554;2022-07-29T11:34:18;5.47;;;2.70;;
59790;SDS011;47431;51.640;5.554;2022-07-29T11:39:28;9.05;;;3.28;;
59790;SDS011;47431;51.640;5.554;2022-07-29T11:42:01;7.93;;;2.85;;
59790;SDS011;47431;51.640;5.554;2022-07-29T11:44:54;10.98;;;3.17;;
59790;SDS011;47431;51.640;5.554;2022-07-29T11:47:21;8.50;;;3.50;;
59790;SDS011;47431;51.640;5.554;2022-07-29T11:49:47;6.68;;;3.22;;
59790;SDS011;47431;51.640;5.554;2022-07-29T11:52:12;8.63;;;3.28;;
59790;SDS011;47431;51.640;5.554;2022-07-29T11:54:37;9.95;;;4.45;;
59790;SDS011;47431;51.640;5.554;2022-07-29T11:57:06;6.68;;;3.15;;
59790;SDS011;47431;51.640;5.554;2022-07-29T11:59:31;7.25;;;3.08;;
59790;SDS011;47431;51.640;5.554;2022-07-29T12:02:03;8.65;;;4.07;;
59790;SDS011;47431;51.640;5.554;2022-07-29T12:04:28;8.90;;;3.90;;
59790;SDS011;47431;51.640;5.554;2022-07-29T12:06:54;5.83;;;3.07;;
59790;SDS011;47431;51.640;5.554;2022-07-29T12:09:19;7.35;;;3.00;;
59790;SDS011;47431;51.640;5.554;2022-07-29T12:11:46;7.03;;;3.83;;
59790;SDS011;47431;51.640;5.554;2022-07-29T12:16:52;9.15;;;3.22;;
59790;SDS011;47431;51.640;5.554;2022-07-29T12:19:17;10.75;;;3.10;;
59790;SDS011;47431;51.640;5.554;2022-07-29T12:21:46;5.67;;;2.57;;
59790;SDS011;47431;51.640;5.554;2022-07-29T12:24:11;8.02;;;3.90;;
59790;SDS011;47431;51.640;5.554;2022-07-29T12:26:48;7.78;;;2.80;;
59790;SDS011;47431;51.640;5.554;2022-07-29T12:29:16;6.85;;;2.92;;
59790;SDS011;47431;51.640;5.554;2022-07-29T12:31:42;6.80;;;3.65;;
59790;SDS011;47431;51.640;5.554;2022-07-29T12:34:08;9.18;;;3.40;;
59790;SDS011;47431;51.640;5.554;2022-07-29T12:36:33;8.00;;;3.40;;
59790;SDS011;47431;51.640;5.554;2022-07-29T12:38:59;7.65;;;3.10;;
59790;SDS011;47431;51.640;5.554;2022-07-29T12:41:24;6.97;;;3.07;;
59790;SDS011;47431;51.640;5.554;2022-07-29T12:43:53;5.40;;;2.83;;
59790;SDS011;47431;51.640;5.554;2022-07-29T12:46:18;7.22;;;3.55;;
59790;SDS011;47431;51.640;5.554;2022-07-29T12:48:43;9.83;;;2.80;;
59790;SDS011;47431;51.640;5.554;2022-07-29T12:51:09;6.80;;;2.30;;
59790;SDS011;47431;51.640;5.554;2022-07-29T12:53:35;10.68;;;2.78;;
59790;SDS011;47431;51.640;5.554;2022-07-29T12:56:01;5.57;;;2.38;;
59790;SDS011;47431;51.640;5.554;2022-07-29T13:03:27;22.42;;;3.35;;
59790;SDS011;47431;51.640;5.554;2022-07-29T13:05:52;21.35;;;4.03;;
59790;SDS011;47431;51.640;5.554;2022-07-29T13:08:18;7.67;;;2.80;;
59790;SDS011;47431;51.640;5.554;2022-07-29T13:10:44;4.80;;;2.03;;
59790;SDS011;47431;51.640;5.554;2022-07-29T13:13:10;4.57;;;2.10;;
59790;SDS011;47431;51.640;5.554;2022-07-29T13:15:36;9.23;;;3.13;;
59790;SDS011;47431;51.640;5.554;2022-07-29T13:18:02;6.22;;;2.60;;
59790;SDS011;47431;51.640;5.554;2022-07-29T13:20:28;9.95;;;2.80;;
59790;SDS011;47431;51.640;5.554;2022-07-29T13:22:54;5.55;;;2.30;;
59790;SDS011;47431;51.640;5.554;2022-07-29T13:25:23;10.32;;;3.33;;
59790;SDS011;47431;51.640;5.554;2022-07-29T13:27:49;7.50;;;2.35;;
59790;SDS011;47431;51.640;5.554;2022-07-29T13:30:14;6.75;;;3.00;;
59790;SDS011;47431;51.640;5.554;2022-07-29T13:32:39;6.87;;;2.93;;
59790;SDS011;47431;51.640;5.554;2022-07-29T13:35:06;6.00;;;3.07;;
59790;SDS011;47431;51.640;5.554;2022-07-29T13:37:32;6.03;;;2.92;;
59790;SDS011;47431;51.640;5.554;2022-07-29T13:39:58;6.03;;;2.90;;
59790;SDS011;47431;51.640;5.554;2022-07-29T13:42:24;10.73;;;3.08;;
59790;SDS011;47431;51.640;5.554;2022-07-29T13:44:50;5.80;;;2.65;;
59790;SDS011;47431;51.640;5.554;2022-07-29T13:47:16;9.52;;;2.08;;
59790;SDS011;47431;51.640;5.554;2022-07-29T13:49:41;6.72;;;2.55;;
59790;SDS011;47431;51.640;5.554;2022-07-29T13:52:07;4.97;;;2.33;;
59790;SDS011;47431;51.640;5.554;2022-07-29T13:54:32;5.03;;;1.83;;
59790;SDS011;47431;51.640;5.554;2022-07-29T13:56:57;7.72;;;1.77;;
59790;SDS011;47431;51.640;5.554;2022-07-29T13:59:23;6.90;;;2.07;;
59790;SDS011;47431;51.640;5.554;2022-07-29T14:01:48;5.43;;;2.63;;
59790;SDS011;47431;51.640;5.554;2022-07-29T14:04:13;7.10;;;2.50;;
59790;SDS011;47431;51.640;5.554;2022-07-29T14:06:38;8.77;;;2.95;;
59790;SDS011;47431;51.640;5.554;2022-07-29T14:09:04;6.00;;;2.53;;
59790;SDS011;47431;51.640;5.554;2022-07-29T14:11:33;6.13;;;2.05;;
59790;SDS011;47431;51.640;5.554;2022-07-29T14:13:58;9.07;;;3.20;;
59790;SDS011;47431;51.640;5.554;2022-07-29T14:16:24;4.88;;;1.92;;
59790;SDS011;47431;51.640;5.554;2022-07-29T14:18:49;15.67;;;3.40;;
59790;SDS011;47431;51.640;5.554;2022-07-29T14:21:14;17.13;;;3.15;;
59790;SDS011;47431;51.640;5.554;2022-07-29T14:23:39;5.97;;;2.63;;
59790;SDS011;47431;51.640;5.554;2022-07-29T14:26:05;8.00;;;2.80;;
59790;SDS011;47431;51.640;5.554;2022-07-29T14:28:30;8.20;;;2.58;;
59790;SDS011;47431;51.640;5.554;2022-07-29T14:30:56;9.25;;;3.60;;
59790;SDS011;47431;51.640;5.554;2022-07-29T14:33:21;6.47;;;2.67;;
59790;SDS011;47431;51.640;5.554;2022-07-29T14:35:46;7.47;;;3.70;;
59790;SDS011;47431;51.640;5.554;2022-07-29T14:38:11;6.20;;;3.13;;
59790;SDS011;47431;51.640;5.554;2022-07-29T14:40:37;33.22;;;6.93;;
59790;SDS011;47431;51.640;5.554;2022-07-29T14:43:02;10.32;;;2.72;;
59790;SDS011;47431;51.640;5.554;2022-07-29T14:45:28;45.63;;;8.18;;
59790;SDS011;47431;51.640;5.554;2022-07-29T14:47:53;11.35;;;3.65;;
59790;SDS011;47431;51.640;5.554;2022-07-29T14:50:18;5.65;;;2.58;;
59790;SDS011;47431;51.640;5.554;2022-07-29T14:52:44;8.30;;;2.95;;
59790;SDS011;47431;51.640;5.554;2022-07-29T14:55:09;7.90;;;3.35;;
59790;SDS011;47431;51.640;5.554;2022-07-29T14:57:34;6.32;;;3.17;;
59790;SDS011;47431;51.640;5.554;2022-07-29T15:00:00;7.20;;;2.63;;
59790;SDS011;47431;51.640;5.554;2022-07-29T15:02:25;9.07;;;2.83;;
59790;SDS011;47431;51.640;5.554;2022-07-29T15:04:50;6.70;;;2.83;;
59790;SDS011;47431;51.640;5.554;2022-07-29T15:07:15;6.55;;;2.47;;
59790;SDS011;47431;51.640;5.554;2022-07-29T15:09:41;7.00;;;3.00;;
59790;SDS011;47431;51.640;5.554;2022-07-29T15:12:06;4.97;;;2.75;;
59790;SDS011;47431;51.640;5.554;2022-07-29T15:14:32;9.25;;;2.78;;
59790;SDS011;47431;51.640;5.554;2022-07-29T15:16:58;7.75;;;2.25;;
59790;SDS011;47431;51.640;5.554;2022-07-29T15:19:23;9.37;;;2.70;;
59790;SDS011;47431;51.640;5.554;2022-07-29T15:21:48;6.35;;;2.70;;
59790;SDS011;47431;51.640;5.554;2022-07-29T15:24:13;11.45;;;3.22;;
59790;SDS011;47431;51.640;5.554;2022-07-29T15:26:38;8.20;;;2.55;;